Saint-Jérôme, Quebec

6:11 PM EDT on September 24, 2016 (GMT -0400)
SAINT-JEROME MIRABEL | | Change Station

Elev 515 ft 45.77 °N, 74.09 °W | Updated 2 minutes ago

Partly Cloudy
Partly Cloudy
55.9 °F
Feels Like 55.9 °F
N
2.0
Wind Variable Wind from NW
Gusts 6.0 mph

Today
High -- | Low -- °F
--% Chance of Precip.
Yesterday
High -- | Low -- °F
Precip. -- in
Pressure 30.16 in
Visibility 45.0 miles
Clouds Few 6500 ft
Few 20000 ft
Dew Point 34 °F
Humidity 44%
Rainfall 0.00 in
Snow Depth Not available.
6:46 AM 6:49 PM
Waning Crescent, 34% visible
METAR CYMX 242200Z 31006KT 270V340 45SM FEW065 FEW200 14/M01 A3015 RMK SC1CI1 SC TR CI TR SLP212
Pressure 30.16 in
Visibility 45.0 miles
Clouds Few 6500 ft
Few 20000 ft
Dew Point 34 °F
Humidity 44%
Rainfall 0.00 in
Snow Depth Not available.
6:46 AM 6:49 PM
Waning Crescent, 34% visible
METAR CYMX 242200Z 31006KT 270V340 45SM FEW065 FEW200 14/M01 A3015 RMK SC1CI1 SC TR CI TR SLP212

10-Day Weather Forecast

Almanac

Astronomy

Sep. 24, 2016 Rise Set
Actual Time
Civil Twilight
Nautical Twilight
Astronomical Twilight
Moon
Length of Visible Light
Length of Day
Tomorrow will be .
, % of the Moon is Illuminated

Today's Extremes

Country Highs Country Lows

Community

WunderPhotos

Upload Photos

1,941,446 photos uploaded!

WunderBlog® & News

Nearby

Air Quality

  Air Quality AQ Index Pollutant
Not available.

Snow Depth

Station Depth Elevation

Earthquake Activity

City Distance Mag. Time & Date
Minimum magnitude displayed is 2.5.

Coastal Water Temperatures

Place Temperature

Stations

Nearby Weather Stations

Station Location Temp. Windchill Dew Point Humidity Wind Precip. Elev Updated Type
                   

Watches & Warnings

There are currently no watches in effect.